powered by Meteolive.it
Dati meteo   Attuali  Passati Ogni 3 ore 7 Giorni 15 Giorni Avvisi Meteo Mappe meteo
Roma / Urbe, Italy
Alba: 4:41 AM UTC1
Tramonto: 7:30 PM UTC1
 Lat: 41.95N, Lon: 12.50E
ICAO Usato: LIRU
Condizioni Meteo Attuali Aggiornate: 23.05.2017 alle 09:50 LT
Quasi Sereno
Quasi Sereno
Sereno
Quasi Sereno
Temp: 16°C
Umidita': 82%
Direz/Vel. Vento: 00 KTS raffiche
Pressione: 1018 hPa
Punto di rugiada: 13°C
Temperatura percepita: 16°C
Visibilitą: >10 KM (ottima)
Temperatura percepita in
presenza di vento (Wind Chill)
:
N/D
T. max (ultime 24 ore): 16°C
T. min (ultime 24 ore): 16°C


METAR ORIGINALE
LIRU 230550Z 00000KT CAVOK 16/13 Q1018